PWSweather.com
Personal Weather Stations
Station Observations
KNCCHINA3
Red Tractor Trail, China Grove, NC 28023

Red Tractor TrailChina Grove, NC 28023

Lat: 35.59751, Lon: -80.60201

Elevation: 800

Station Type: Oregon Scientific WMR 968

http://www.joesweathergarage.com

Latest ConditionsUpdated 9:00:20 PM EST Sunday, Feb 18, 2018
Currently Today's Max Today's Min Today's Average
Temperature 44.1°F6.7°C 68.0°F20.0°C 40.2°F4.6°C 50.8°F10.4°C
Dew Point 31.5°F-0.3°C 45.5°F7.5°C 29.2°F-1.6°C 37.3°F2.9°C
Winds Calm Calm 18.0 mph NE29.0 kmh NE - 4.6 mph 7.4 kmh
Wind Gusts -- 24.6 mph39.6 kmh - -
Humidity 61% 98% 34% 66%
Pressure 30.33 in1027.1 mb 30.33 in1027.1 mb 30.06 in1017.9 mb -
Hour Temp Dew Point Humidity Winds Wind Gusts Pressure Precip Precip Rate Daily Precip Total
09:00 PM 44.1°F6.7°C 31.5°F-0.3°C 61% Calm Calm -- 30.33 in1027.1 mb 0.00 in0.0 mm 0.00 in0.0 mm 0.00 in0.0 mm
08:53 PM 44.1°F6.7°C 31.1°F-0.5°C 60% Calm Calm -- 30.33 in1027.1 mb 0.00 in0.0 mm 0.00 in0.0 mm 0.00 in0.0 mm
08:48 PM 44.1°F6.7°C 31.5°F-0.3°C 61% Calm Calm -- 30.33 in1027.1 mb 0.00 in0.0 mm 0.00 in0.0 mm 0.00 in0.0 mm
08:43 PM 44.1°F6.7°C 31.1°F-0.5°C 60% Calm Calm -- 30.33 in1027.1 mb 0.00 in0.0 mm 0.00 in0.0 mm 0.00 in0.0 mm
08:38 PM 44.5°F6.9°C 30.6°F-0.8°C 58% Calm Calm -- 30.33 in1027.1 mb 0.00 in0.0 mm 0.00 in0.0 mm 0.00 in0.0 mm
08:33 PM 44.1°F6.7°C 30.2°F-1.0°C 58% Calm Calm -- 30.33 in1027.1 mb 0.00 in0.0 mm 0.00 in0.0 mm 0.00 in0.0 mm
08:28 PM 44.1°F6.7°C 30.2°F-1.0°C 58% Calm Calm -- 30.33 in1027.1 mb 0.00 in0.0 mm 0.00 in0.0 mm 0.00 in0.0 mm
08:23 PM 44.5°F6.9°C 30.2°F-1.0°C 57% Calm Calm -- 30.33 in1027.1 mb 0.00 in0.0 mm 0.00 in0.0 mm 0.00 in0.0 mm
08:18 PM 45.0°F7.2°C 30.7°F-0.7°C 57% Calm Calm -- 30.33 in1027.1 mb 0.00 in0.0 mm 0.00 in0.0 mm 0.00 in0.0 mm
08:12 PM 45.4°F7.4°C 30.6°F-0.8°C 56% Calm Calm -- 30.33 in1027.1 mb 0.00 in0.0 mm 0.00 in0.0 mm 0.00 in0.0 mm
08:07 PM 45.9°F7.7°C 30.6°F-0.8°C 55% Calm Calm -- 30.30 in1026.1 mb 0.00 in0.0 mm 0.00 in0.0 mm 0.00 in0.0 mm
08:02 PM 46.3°F7.9°C 30.0°F-1.1°C 53% Calm Calm -- 30.30 in1026.1 mb 0.00 in0.0 mm 0.00 in0.0 mm 0.00 in0.0 mm
07:57 PM 46.5°F8.1°C 29.7°F-1.3°C 52% Calm Calm -- 30.30 in1026.1 mb 0.00 in0.0 mm 0.00 in0.0 mm 0.00 in0.0 mm
07:52 PM 46.5°F8.1°C 29.2°F-1.6°C 51% Calm Calm -- 30.33 in1027.1 mb 0.00 in0.0 mm 0.00 in0.0 mm 0.00 in0.0 mm
07:47 PM 46.8°F8.2°C 29.5°F-1.4°C 51% Calm Calm -- 30.33 in1027.1 mb 0.00 in0.0 mm 0.00 in0.0 mm 0.00 in0.0 mm
07:42 PM 47.2°F8.4°C 29.4°F-1.4°C 50% Calm Calm -- 30.33 in1027.1 mb 0.00 in0.0 mm 0.00 in0.0 mm 0.00 in0.0 mm
07:37 PM 47.6°F8.7°C 29.8°F-1.2°C 50% Calm Calm -- 30.33 in1027.1 mb 0.00 in0.0 mm 0.00 in0.0 mm 0.00 in0.0 mm
07:31 PM 47.7°F8.7°C 29.8°F-1.2°C 50% Calm Calm -- 30.33 in1027.1 mb 0.00 in0.0 mm 0.00 in0.0 mm 0.00 in0.0 mm
07:26 PM 48.3°F9.1°C 29.9°F-1.2°C 49% Calm Calm -- 30.30 in1026.1 mb 0.00 in0.0 mm 0.00 in0.0 mm 0.00 in0.0 mm
07:21 PM 48.6°F9.2°C 30.2°F-1.0°C 49% Calm Calm -- 30.30 in1026.1 mb 0.00 in0.0 mm 0.00 in0.0 mm 0.00 in0.0 mm
07:16 PM 49.2°F9.6°C 30.2°F-1.0°C 48% Calm Calm -- 30.30 in1026.1 mb 0.00 in0.0 mm 0.00 in0.0 mm 0.00 in0.0 mm
07:11 PM 49.5°F9.7°C 29.9°F-1.2°C 47% Calm Calm -- 30.30 in1026.1 mb 0.00 in0.0 mm 0.00 in0.0 mm 0.00 in0.0 mm
07:06 PM 49.9°F9.9°C 29.8°F-1.2°C 46% Calm Calm -- 30.30 in1026.1 mb 0.00 in0.0 mm 0.00 in0.0 mm 0.00 in0.0 mm
06:59 PM 50.4°F10.2°C 30.2°F-1.0°C 46% Calm Calm -- 30.30 in1026.1 mb 0.00 in0.0 mm 0.00 in0.0 mm 0.00 in0.0 mm
06:54 PM 51.0°F10.6°C 30.2°F-1.0°C 45% Calm Calm -- 30.33 in1027.1 mb 0.00 in0.0 mm 0.00 in0.0 mm 0.00 in0.0 mm
06:49 PM 51.5°F10.8°C 29.5°F-1.4°C 43% Calm Calm -- 30.33 in1027.1 mb 0.00 in0.0 mm 0.00 in0.0 mm 0.00 in0.0 mm
06:44 PM 52.1°F11.2°C 29.5°F-1.4°C 42% Calm Calm -- 30.33 in1027.1 mb 0.00 in0.0 mm 0.00 in0.0 mm 0.00 in0.0 mm
06:39 PM 52.8°F11.6°C 29.5°F-1.4°C 41% Calm Calm -- 30.33 in1027.1 mb 0.00 in0.0 mm 0.00 in0.0 mm 0.00 in0.0 mm
06:34 PM 53.1°F11.7°C 29.8°F-1.2°C 41% Calm Calm 3.2 mph5.1 kmh 30.33 in1027.1 mb 0.00 in0.0 mm 0.00 in0.0 mm 0.00 in0.0 mm
06:29 PM 53.5°F11.9°C 29.5°F-1.4°C 40% Calm Calm 3.2 mph5.1 kmh 30.33 in1027.1 mb 0.00 in0.0 mm 0.00 in0.0 mm 0.00 in0.0 mm
06:24 PM 53.9°F12.2°C 29.9°F-1.2°C 40% 2.8 mph ESE4.5 kmh ESE 3.2 mph5.1 kmh 30.33 in1027.1 mb 0.00 in0.0 mm 0.00 in0.0 mm 0.00 in0.0 mm
06:19 PM 54.2°F12.3°C 29.5°F-1.4°C 39% 2.9 mph ESE4.7 kmh ESE 3.2 mph5.1 kmh 30.33 in1027.1 mb 0.00 in0.0 mm 0.00 in0.0 mm 0.00 in0.0 mm
06:14 PM 54.8°F12.7°C 30.0°F-1.1°C 39% Calm Calm 4.0 mph6.4 kmh 30.33 in1027.1 mb 0.00 in0.0 mm 0.00 in0.0 mm 0.00 in0.0 mm
06:09 PM 55.7°F13.2°C 30.2°F-1.0°C 38% 2.2 mph ESE3.5 kmh ESE 5.0 mph8.0 kmh 30.30 in1026.1 mb 0.00 in0.0 mm 0.00 in0.0 mm 0.00 in0.0 mm
06:04 PM 56.2°F13.4°C 30.6°F-0.8°C 38% 2.5 mph ESE4.0 kmh ESE 5.0 mph8.0 kmh 30.30 in1026.1 mb 0.00 in0.0 mm 0.00 in0.0 mm 0.00 in0.0 mm
05:58 PM 56.4°F13.6°C 30.8°F-0.7°C 38% 4.0 mph ESE6.4 kmh ESE 4.0 mph6.4 kmh 30.30 in1026.1 mb 0.00 in0.0 mm 0.00 in0.0 mm 0.00 in0.0 mm
05:53 PM 56.9°F13.8°C 31.2°F-0.4°C 38% Calm Calm 6.2 mph10.0 kmh 30.30 in1026.1 mb 0.00 in0.0 mm 0.00 in0.0 mm 0.00 in0.0 mm
05:48 PM 57.5°F14.2°C 31.1°F-0.5°C 37% 2.4 mph ENE3.9 kmh ENE 7.6 mph12.2 kmh 30.30 in1026.1 mb 0.00 in0.0 mm 0.00 in0.0 mm 0.00 in0.0 mm
05:43 PM 58.0°F14.4°C 31.6°F-0.2°C 37% 4.4 mph ESE7.1 kmh ESE 7.6 mph12.2 kmh 30.30 in1026.1 mb 0.00 in0.0 mm 0.00 in0.0 mm 0.00 in0.0 mm
05:38 PM 58.2°F14.6°C 31.7°F-0.2°C 37% 3.1 mph SE5.0 kmh SE 7.2 mph11.6 kmh 30.30 in1026.1 mb 0.00 in0.0 mm 0.00 in0.0 mm 0.00 in0.0 mm
05:33 PM 58.4°F14.7°C 31.9°F-0.1°C 37% 5.6 mph ESE9.0 kmh ESE 11.2 mph18.0 kmh 30.30 in1026.1 mb 0.00 in0.0 mm 0.00 in0.0 mm 0.00 in0.0 mm
05:27 PM 58.5°F14.7°C 31.3°F-0.4°C 36% 7.6 mph SE12.2 kmh SE 11.2 mph18.0 kmh 30.30 in1026.1 mb 0.00 in0.0 mm 0.00 in0.0 mm 0.00 in0.0 mm
05:22 PM 58.4°F14.7°C 31.9°F-0.1°C 37% 4.6 mph ESE7.4 kmh ESE 9.4 mph15.1 kmh 30.30 in1026.1 mb 0.00 in0.0 mm 0.00 in0.0 mm 0.00 in0.0 mm
05:17 PM 58.5°F14.7°C 32.0°F0.0°C 37% 5.8 mph SE9.3 kmh SE 7.6 mph12.2 kmh 30.30 in1026.1 mb 0.00 in0.0 mm 0.00 in0.0 mm 0.00 in0.0 mm
05:12 PM 58.7°F14.8°C 32.2°F0.1°C 37% 2.5 mph SE4.0 kmh SE 12.6 mph20.3 kmh 30.30 in1026.1 mb 0.00 in0.0 mm 0.00 in0.0 mm 0.00 in0.0 mm
05:07 PM 58.9°F14.9°C 31.7°F-0.2°C 36% 3.9 mph ESE6.3 kmh ESE 12.6 mph20.3 kmh 30.27 in1025.1 mb 0.00 in0.0 mm 0.00 in0.0 mm 0.00 in0.0 mm
05:02 PM 59.1°F15.1°C 31.8°F-0.1°C 36% 7.3 mph ESE11.7 kmh ESE 12.0 mph19.3 kmh 30.27 in1025.1 mb 0.00 in0.0 mm 0.00 in0.0 mm 0.00 in0.0 mm
04:57 PM 59.1°F15.1°C 31.8°F-0.1°C 36% 4.4 mph E7.1 kmh E 10.8 mph17.4 kmh 30.27 in1025.1 mb 0.00 in0.0 mm 0.00 in0.0 mm 0.00 in0.0 mm
04:52 PM 59.3°F15.2°C 32.0°F0.0°C 36% 2.9 mph ESE4.7 kmh ESE 10.8 mph17.4 kmh 30.27 in1025.1 mb 0.00 in0.0 mm 0.00 in0.0 mm 0.00 in0.0 mm
04:47 PM 59.4°F15.2°C 32.1°F0.1°C 36% 6.0 mph E9.7 kmh E 9.8 mph15.8 kmh 30.27 in1025.1 mb 0.00 in0.0 mm 0.00 in0.0 mm 0.00 in0.0 mm
04:42 PM 59.6°F15.3°C 32.3°F0.2°C 36% 5.0 mph SE8.0 kmh SE 9.4 mph15.1 kmh 30.27 in1025.1 mb 0.00 in0.0 mm 0.00 in0.0 mm 0.00 in0.0 mm
04:37 PM 59.9°F15.5°C 32.6°F0.3°C 36% 5.6 mph E9.0 kmh E 15.2 mph24.5 kmh 30.27 in1025.1 mb 0.00 in0.0 mm 0.00 in0.0 mm 0.00 in0.0 mm
04:32 PM 60.1°F15.6°C 32.8°F0.4°C 36% 10.9 mph ESE17.5 kmh ESE 15.2 mph24.5 kmh 30.27 in1025.1 mb 0.00 in0.0 mm 0.00 in0.0 mm 0.00 in0.0 mm
04:27 PM 60.2°F15.7°C 32.9°F0.5°C 36% 4.9 mph SE7.9 kmh SE 8.6 mph13.8 kmh 30.27 in1025.1 mb 0.00 in0.0 mm 0.00 in0.0 mm 0.00 in0.0 mm
04:22 PM 60.6°F15.9°C 33.3°F0.7°C 36% 5.7 mph E9.2 kmh E 11.6 mph18.7 kmh 30.27 in1025.1 mb 0.00 in0.0 mm 0.00 in0.0 mm 0.00 in0.0 mm
04:17 PM 61.1°F16.2°C 33.7°F0.9°C 36% 5.6 mph SE9.0 kmh SE 13.0 mph20.9 kmh 30.27 in1025.1 mb 0.00 in0.0 mm 0.00 in0.0 mm 0.00 in0.0 mm
04:12 PM 61.9°F16.6°C 34.4°F1.3°C 36% 8.2 mph E13.2 kmh E 13.0 mph20.9 kmh 30.27 in1025.1 mb 0.00 in0.0 mm 0.00 in0.0 mm 0.00 in0.0 mm
04:06 PM 62.6°F17.0°C 35.0°F1.7°C 36% 6.1 mph E9.8 kmh E 14.8 mph23.8 kmh 30.27 in1025.1 mb 0.00 in0.0 mm 0.00 in0.0 mm 0.00 in0.0 mm
04:01 PM 63.1°F17.3°C 35.5°F1.9°C 36% 7.2 mph SE11.6 kmh SE 14.8 mph23.8 kmh 30.27 in1025.1 mb 0.00 in0.0 mm 0.00 in0.0 mm 0.00 in0.0 mm
03:56 PM 63.3°F17.4°C 34.9°F1.6°C 35% 7.6 mph E12.2 kmh E 11.6 mph18.7 kmh 30.27 in1025.1 mb 0.00 in0.0 mm 0.00 in0.0 mm 0.00 in0.0 mm
03:51 PM 63.5°F17.5°C 35.1°F1.7°C 35% 5.9 mph E9.5 kmh E 10.8 mph17.4 kmh 30.27 in1025.1 mb 0.00 in0.0 mm 0.00 in0.0 mm 0.00 in0.0 mm
03:45 PM 64.2°F17.9°C 35.7°F2.1°C 35% 7.0 mph SE11.3 kmh SE 10.8 mph17.4 kmh 30.27 in1025.1 mb 0.00 in0.0 mm 0.00 in0.0 mm 0.00 in0.0 mm
03:40 PM 64.6°F18.1°C 35.4°F1.9°C 34% 6.9 mph NE11.1 kmh NE 9.4 mph15.1 kmh 30.27 in1025.1 mb 0.00 in0.0 mm 0.00 in0.0 mm 0.00 in0.0 mm
03:35 PM 65.3°F18.5°C 36.7°F2.6°C 35% 5.7 mph E9.2 kmh E 11.2 mph18.0 kmh 30.27 in1025.1 mb 0.00 in0.0 mm 0.00 in0.0 mm 0.00 in0.0 mm
03:30 PM 64.9°F18.3°C 36.4°F2.4°C 35% 5.7 mph E9.2 kmh E 11.2 mph18.0 kmh 30.27 in1025.1 mb 0.00 in0.0 mm 0.00 in0.0 mm 0.00 in0.0 mm
03:24 PM 64.7°F18.2°C 36.2°F2.3°C 35% 5.0 mph SE8.0 kmh SE 14.4 mph23.2 kmh 30.27 in1025.1 mb 0.00 in0.0 mm 0.00 in0.0 mm 0.00 in0.0 mm
03:19 PM 64.7°F18.2°C 35.4°F1.9°C 34% 10.2 mph ESE16.4 kmh ESE 14.4 mph23.2 kmh 30.27 in1025.1 mb 0.00 in0.0 mm 0.00 in0.0 mm 0.00 in0.0 mm
03:14 PM 65.1°F18.4°C 36.5°F2.5°C 35% 6.2 mph ESE10.0 kmh ESE 12.0 mph19.3 kmh 30.27 in1025.1 mb 0.00 in0.0 mm 0.00 in0.0 mm 0.00 in0.0 mm
03:09 PM 65.5°F18.6°C 36.9°F2.7°C 35% 7.0 mph S11.3 kmh S 10.8 mph17.4 kmh 30.27 in1025.1 mb 0.00 in0.0 mm 0.00 in0.0 mm 0.00 in0.0 mm
03:04 PM 65.5°F18.6°C 36.9°F2.7°C 35% 4.2 mph ESE6.8 kmh ESE 10.8 mph17.4 kmh 30.27 in1025.1 mb 0.00 in0.0 mm 0.00 in0.0 mm 0.00 in0.0 mm
02:58 PM 64.7°F18.2°C 36.2°F2.3°C 35% 7.1 mph ENE11.4 kmh ENE 11.6 mph18.7 kmh 30.27 in1025.1 mb 0.00 in0.0 mm 0.00 in0.0 mm 0.00 in0.0 mm
02:54 PM 64.9°F18.3°C 36.4°F2.4°C 35% 9.6 mph SE15.4 kmh SE 11.6 mph18.7 kmh 30.27 in1025.1 mb 0.00 in0.0 mm 0.00 in0.0 mm 0.00 in0.0 mm
02:48 PM 65.3°F18.5°C 36.7°F2.6°C 35% 4.5 mph E7.2 kmh E 14.8 mph23.8 kmh 30.27 in1025.1 mb 0.00 in0.0 mm 0.00 in0.0 mm 0.00 in0.0 mm
02:43 PM 65.1°F18.4°C 35.8°F2.1°C 34% 10.1 mph E16.3 kmh E 19.2 mph30.9 kmh 30.27 in1025.1 mb 0.00 in0.0 mm 0.00 in0.0 mm 0.00 in0.0 mm
02:38 PM 66.2°F19.0°C 36.8°F2.7°C 34% 6.6 mph E10.6 kmh E 19.2 mph30.9 kmh 30.27 in1025.1 mb 0.00 in0.0 mm 0.00 in0.0 mm 0.00 in0.0 mm
02:33 PM 66.9°F19.4°C 38.1°F3.4°C 35% 2.9 mph E4.7 kmh E 12.6 mph20.3 kmh 30.27 in1025.1 mb 0.00 in0.0 mm 0.00 in0.0 mm 0.00 in0.0 mm
02:28 PM 66.7°F19.3°C 37.2°F2.9°C 34% 8.5 mph SE13.7 kmh SE 12.6 mph20.3 kmh 30.27 in1025.1 mb 0.00 in0.0 mm 0.00 in0.0 mm 0.00 in0.0 mm
02:23 PM 66.9°F19.4°C 37.4°F3.0°C 34% 10.5 mph ENE16.9 kmh ENE 12.6 mph20.3 kmh 30.27 in1025.1 mb 0.00 in0.0 mm 0.00 in0.0 mm 0.00 in0.0 mm
02:18 PM 67.4°F19.7°C 37.8°F3.2°C 34% 7.0 mph E11.3 kmh E 12.6 mph20.3 kmh 30.27 in1025.1 mb 0.00 in0.0 mm 0.00 in0.0 mm 0.00 in0.0 mm
02:13 PM 67.6°F19.8°C 38.0°F3.3°C 34% 5.9 mph SSE9.5 kmh SSE 9.4 mph15.1 kmh 30.27 in1025.1 mb 0.00 in0.0 mm 0.00 in0.0 mm 0.00 in0.0 mm
02:08 PM 68.0°F20.0°C 38.3°F3.5°C 34% 5.9 mph ESE9.5 kmh ESE 11.2 mph18.0 kmh 30.30 in1026.1 mb 0.00 in0.0 mm 0.00 in0.0 mm 0.00 in0.0 mm
02:03 PM 66.9°F19.4°C 37.4°F3.0°C 34% 7.5 mph ESE12.1 kmh ESE 13.0 mph20.9 kmh 30.30 in1026.1 mb 0.00 in0.0 mm 0.00 in0.0 mm 0.00 in0.0 mm
01:58 PM 66.7°F19.3°C 37.2°F2.9°C 34% 6.5 mph ENE10.5 kmh ENE 13.0 mph20.9 kmh 30.30 in1026.1 mb 0.00 in0.0 mm 0.00 in0.0 mm 0.00 in0.0 mm
01:53 PM 66.5°F19.2°C 37.0°F2.8°C 34% 6.2 mph NE10.0 kmh NE 13.0 mph20.9 kmh 30.30 in1026.1 mb 0.00 in0.0 mm 0.00 in0.0 mm 0.00 in0.0 mm
01:48 PM 66.0°F18.9°C 37.3°F2.9°C 35% 8.8 mph E14.2 kmh E 13.0 mph20.9 kmh 30.30 in1026.1 mb 0.00 in0.0 mm 0.00 in0.0 mm 0.00 in0.0 mm
01:42 PM 66.0°F18.9°C 38.1°F3.4°C 36% 5.7 mph NE9.2 kmh NE 15.6 mph25.1 kmh 30.33 in1027.1 mb 0.00 in0.0 mm 0.00 in0.0 mm 0.00 in0.0 mm
01:37 PM 66.5°F19.2°C 37.8°F3.2°C 35% 9.3 mph ESE15.0 kmh ESE 13.0 mph20.9 kmh 30.33 in1027.1 mb 0.00 in0.0 mm 0.00 in0.0 mm 0.00 in0.0 mm
01:32 PM 66.2°F19.0°C 38.2°F3.4°C 36% 8.3 mph SE13.4 kmh SE 11.6 mph18.7 kmh 30.33 in1027.1 mb 0.00 in0.0 mm 0.00 in0.0 mm 0.00 in0.0 mm
01:27 PM 66.0°F18.9°C 38.8°F3.8°C 37% 7.2 mph ENE11.6 kmh ENE 12.6 mph20.3 kmh 30.33 in1027.1 mb 0.00 in0.0 mm 0.00 in0.0 mm 0.00 in0.0 mm
01:21 PM 65.8°F18.8°C 38.6°F3.7°C 37% 7.8 mph SE12.6 kmh SE 12.6 mph20.3 kmh 30.33 in1027.1 mb 0.00 in0.0 mm 0.00 in0.0 mm 0.00 in0.0 mm
01:16 PM 65.6°F18.7°C 39.1°F3.9°C 38% 4.8 mph SSE7.7 kmh SSE 11.6 mph18.7 kmh 30.33 in1027.1 mb 0.00 in0.0 mm 0.00 in0.0 mm 0.00 in0.0 mm
01:10 PM 64.2°F17.9°C 37.2°F2.9°C 37% 7.3 mph SE11.7 kmh SE 11.6 mph18.7 kmh 30.33 in1027.1 mb 0.00 in0.0 mm 0.00 in0.0 mm 0.00 in0.0 mm
01:05 PM 64.0°F17.8°C 37.7°F3.2°C 38% 8.7 mph NNE14.0 kmh NNE 11.2 mph18.0 kmh 30.33 in1027.1 mb 0.00 in0.0 mm 0.00 in0.0 mm 0.00 in0.0 mm
12:58 PM 65.1°F18.4°C 38.0°F3.3°C 37% 6.9 mph E11.1 kmh E 14.8 mph23.8 kmh 30.33 in1027.1 mb 0.00 in0.0 mm 0.00 in0.0 mm 0.00 in0.0 mm
12:53 PM 64.6°F18.1°C 38.9°F3.8°C 39% 7.1 mph E11.4 kmh E 14.8 mph23.8 kmh 30.33 in1027.1 mb 0.00 in0.0 mm 0.00 in0.0 mm 0.00 in0.0 mm
12:47 PM 63.8°F17.7°C 38.8°F3.8°C 40% 6.2 mph ESE10.0 kmh ESE 14.8 mph23.8 kmh 30.33 in1027.1 mb 0.00 in0.0 mm 0.00 in0.0 mm 0.00 in0.0 mm
12:42 PM 62.8°F17.1°C 37.9°F3.3°C 40% 7.6 mph NE12.2 kmh NE 14.8 mph23.8 kmh 30.33 in1027.1 mb 0.00 in0.0 mm 0.00 in0.0 mm 0.00 in0.0 mm
12:37 PM 62.6°F17.0°C 37.8°F3.2°C 40% 6.6 mph ESE10.6 kmh ESE 15.2 mph24.5 kmh 30.33 in1027.1 mb 0.00 in0.0 mm 0.00 in0.0 mm 0.00 in0.0 mm
12:32 PM 61.3°F16.3°C 36.6°F2.6°C 40% 8.1 mph E13.0 kmh E 17.4 mph28.0 kmh 30.33 in1027.1 mb 0.00 in0.0 mm 0.00 in0.0 mm 0.00 in0.0 mm
12:26 PM 60.8°F16.0°C 36.1°F2.3°C 40% 14.1 mph NNE22.7 kmh NNE 20.2 mph32.5 kmh 30.33 in1027.1 mb 0.00 in0.0 mm 0.00 in0.0 mm 0.00 in0.0 mm
12:21 PM 61.3°F16.3°C 36.6°F2.6°C 40% 13.4 mph NE21.6 kmh NE 20.2 mph32.5 kmh 30.33 in1027.1 mb 0.00 in0.0 mm 0.00 in0.0 mm 0.00 in0.0 mm
12:16 PM 61.1°F16.2°C 37.7°F3.2°C 42% 5.9 mph ENE9.5 kmh ENE 16.2 mph26.1 kmh 30.33 in1027.1 mb 0.00 in0.0 mm 0.00 in0.0 mm 0.00 in0.0 mm
12:11 PM 60.1°F15.6°C 36.8°F2.7°C 42% 12.1 mph NE19.5 kmh NE 16.2 mph26.1 kmh 30.33 in1027.1 mb 0.00 in0.0 mm 0.00 in0.0 mm 0.00 in0.0 mm
12:06 PM 60.8°F16.0°C 37.4°F3.0°C 42% 7.9 mph E12.7 kmh E 11.6 mph18.7 kmh 30.33 in1027.1 mb 0.00 in0.0 mm 0.00 in0.0 mm 0.00 in0.0 mm
12:01 PM 60.1°F15.6°C 38.0°F3.3°C 44% 5.7 mph ESE9.2 kmh ESE 16.2 mph26.1 kmh 30.33 in1027.1 mb 0.00 in0.0 mm 0.00 in0.0 mm 0.00 in0.0 mm
11:56 AM 59.3°F15.2°C 36.0°F2.2°C 42% 12.6 mph NE20.3 kmh NE 17.4 mph28.0 kmh 30.33 in1027.1 mb 0.00 in0.0 mm 0.00 in0.0 mm 0.00 in0.0 mm
11:51 AM 58.7°F14.8°C 36.6°F2.6°C 44% 9.2 mph ENE14.8 kmh ENE 17.4 mph28.0 kmh 30.33 in1027.1 mb 0.00 in0.0 mm 0.00 in0.0 mm 0.00 in0.0 mm
11:46 AM 58.4°F14.7°C 36.9°F2.7°C 45% 8.5 mph NE13.7 kmh NE 14.4 mph23.2 kmh 30.33 in1027.1 mb 0.00 in0.0 mm 0.00 in0.0 mm 0.00 in0.0 mm
11:41 AM 58.7°F14.8°C 37.2°F2.9°C 45% 6.8 mph E10.9 kmh E 13.0 mph20.9 kmh 30.33 in1027.1 mb 0.00 in0.0 mm 0.00 in0.0 mm 0.00 in0.0 mm
11:36 AM 58.0°F14.4°C 36.6°F2.6°C 45% 8.8 mph NE14.2 kmh NE 18.4 mph29.6 kmh 30.33 in1027.1 mb 0.00 in0.0 mm 0.00 in0.0 mm 0.00 in0.0 mm
11:31 AM 57.1°F13.9°C 35.2°F1.8°C 44% 11.6 mph E18.7 kmh E 22.0 mph35.4 kmh 30.33 in1027.1 mb 0.00 in0.0 mm 0.00 in0.0 mm 0.00 in0.0 mm
11:26 AM 57.1°F13.9°C 34.6°F1.4°C 43% 12.8 mph E20.6 kmh E 22.0 mph35.4 kmh 30.33 in1027.1 mb 0.00 in0.0 mm 0.00 in0.0 mm 0.00 in0.0 mm
11:21 AM 56.9°F13.8°C 36.2°F2.3°C 46% 9.3 mph ENE15.0 kmh ENE 17.4 mph28.0 kmh 30.33 in1027.1 mb 0.00 in0.0 mm 0.00 in0.0 mm 0.00 in0.0 mm
11:16 AM 56.7°F13.7°C 35.4°F1.9°C 45% 13.1 mph NE21.1 kmh NE 22.0 mph35.4 kmh 30.33 in1027.1 mb 0.00 in0.0 mm 0.00 in0.0 mm 0.00 in0.0 mm
11:11 AM 56.7°F13.7°C 36.0°F2.2°C 46% 10.6 mph ENE17.1 kmh ENE 22.0 mph35.4 kmh 30.33 in1027.1 mb 0.00 in0.0 mm 0.00 in0.0 mm 0.00 in0.0 mm
11:06 AM 55.8°F13.2°C 35.7°F2.1°C 47% 10.7 mph NE17.2 kmh NE 24.6 mph39.6 kmh 30.33 in1027.1 mb 0.00 in0.0 mm 0.00 in0.0 mm 0.00 in0.0 mm
11:01 AM 55.1°F12.8°C 35.1°F1.7°C 47% 18.0 mph NE29.0 kmh NE 24.6 mph39.6 kmh 30.33 in1027.1 mb 0.00 in0.0 mm 0.00 in0.0 mm 0.00 in0.0 mm
10:55 AM 54.6°F12.6°C 35.7°F2.1°C 49% 17.3 mph NNE27.8 kmh NNE 22.0 mph35.4 kmh 30.33 in1027.1 mb 0.00 in0.0 mm 0.00 in0.0 mm 0.00 in0.0 mm
10:50 AM 54.8°F12.7°C 37.4°F3.0°C 52% 14.1 mph NE22.7 kmh NE 19.6 mph31.5 kmh 30.33 in1027.1 mb 0.00 in0.0 mm 0.00 in0.0 mm 0.00 in0.0 mm
10:45 AM 54.4°F12.4°C 38.0°F3.3°C 54% 8.5 mph NE13.7 kmh NE 19.6 mph31.5 kmh 30.33 in1027.1 mb 0.00 in0.0 mm 0.00 in0.0 mm 0.00 in0.0 mm
10:40 AM 54.4°F12.4°C 37.6°F3.1°C 53% 14.1 mph NE22.7 kmh NE 19.6 mph31.5 kmh 30.33 in1027.1 mb 0.00 in0.0 mm 0.00 in0.0 mm 0.00 in0.0 mm
10:34 AM 54.4°F12.4°C 37.1°F2.8°C 52% 12.4 mph NE20.0 kmh NE 21.0 mph33.8 kmh 30.33 in1027.1 mb 0.00 in0.0 mm 0.00 in0.0 mm 0.00 in0.0 mm
10:29 AM 54.8°F12.7°C 37.9°F3.3°C 53% 13.5 mph ENE21.7 kmh ENE 21.4 mph34.4 kmh 30.33 in1027.1 mb 0.00 in0.0 mm 0.00 in0.0 mm 0.00 in0.0 mm
10:23 AM 54.6°F12.6°C 38.7°F3.7°C 55% 12.2 mph ENE19.6 kmh ENE 21.4 mph34.4 kmh 30.30 in1026.1 mb 0.00 in0.0 mm 0.00 in0.0 mm 0.00 in0.0 mm
10:18 AM 54.4°F12.4°C 40.4°F4.7°C 59% 9.0 mph E14.5 kmh E 15.6 mph25.1 kmh 30.30 in1026.1 mb 0.00 in0.0 mm 0.00 in0.0 mm 0.00 in0.0 mm
10:13 AM 54.0°F12.2°C 41.3°F5.2°C 62% 12.0 mph NE19.3 kmh NE 15.6 mph25.1 kmh 30.30 in1026.1 mb 0.00 in0.0 mm 0.00 in0.0 mm 0.00 in0.0 mm
10:08 AM 53.1°F11.7°C 42.1°F5.6°C 66% 8.0 mph NE12.9 kmh NE 16.2 mph26.1 kmh 30.33 in1027.1 mb 0.00 in0.0 mm 0.00 in0.0 mm 0.00 in0.0 mm
10:02 AM 51.9°F11.1°C 40.5°F4.7°C 65% 12.1 mph NE19.5 kmh NE 22.0 mph35.4 kmh 30.33 in1027.1 mb 0.00 in0.0 mm 0.00 in0.0 mm 0.00 in0.0 mm
09:57 AM 50.8°F10.4°C 39.9°F4.4°C 66% 11.8 mph NNE19.0 kmh NNE 22.0 mph35.4 kmh 30.33 in1027.1 mb 0.00 in0.0 mm 0.00 in0.0 mm 0.00 in0.0 mm
09:52 AM 50.4°F10.2°C 40.3°F4.6°C 68% 15.4 mph NNE24.8 kmh NNE 22.0 mph35.4 kmh 30.33 in1027.1 mb 0.00 in0.0 mm 0.00 in0.0 mm 0.00 in0.0 mm
09:47 AM 50.1°F10.1°C 40.7°F4.8°C 70% 16.3 mph NE26.2 kmh NE 22.0 mph35.4 kmh 30.33 in1027.1 mb 0.00 in0.0 mm 0.00 in0.0 mm 0.00 in0.0 mm
09:42 AM 49.0°F9.4°C 41.1°F5.1°C 74% 14.5 mph NNE23.3 kmh NNE 20.6 mph33.2 kmh 30.33 in1027.1 mb 0.00 in0.0 mm 0.00 in0.0 mm 0.00 in0.0 mm
09:37 AM 48.1°F8.9°C 40.9°F4.9°C 76% 15.2 mph NE24.5 kmh NE 20.2 mph32.5 kmh 30.33 in1027.1 mb 0.00 in0.0 mm 0.00 in0.0 mm 0.00 in0.0 mm
09:31 AM 47.0°F8.3°C 41.4°F5.2°C 81% 13.1 mph NNE21.1 kmh NNE 17.0 mph27.4 kmh 30.33 in1027.1 mb 0.00 in0.0 mm 0.00 in0.0 mm 0.00 in0.0 mm
09:26 AM 46.7°F8.2°C 44.1°F6.7°C 91% 9.3 mph NNE15.0 kmh NNE 17.0 mph27.4 kmh 30.30 in1026.1 mb 0.00 in0.0 mm 0.00 in0.0 mm 0.00 in0.0 mm
09:21 AM 46.1°F7.8°C 45.5°F7.5°C 98% 7.7 mph NE12.4 kmh NE 14.4 mph23.2 kmh 30.30 in1026.1 mb 0.00 in0.0 mm 0.00 in0.0 mm 0.00 in0.0 mm
09:16 AM 45.8°F7.7°C 45.2°F7.3°C 98% 7.5 mph NE12.1 kmh NE 14.4 mph23.2 kmh 30.30 in1026.1 mb 0.00 in0.0 mm 0.00 in0.0 mm 0.00 in0.0 mm
09:11 AM 44.9°F7.2°C 44.3°F6.8°C 98% 7.1 mph NE11.4 kmh NE 11.6 mph18.7 kmh 30.30 in1026.1 mb 0.00 in0.0 mm 0.00 in0.0 mm 0.00 in0.0 mm
09:06 AM 44.5°F6.9°C 43.9°F6.6°C 98% 6.3 mph NE10.1 kmh NE 10.8 mph17.4 kmh 30.30 in1026.1 mb 0.00 in0.0 mm 0.00 in0.0 mm 0.00 in0.0 mm
09:01 AM 44.5°F6.9°C 43.9°F6.6°C 98% 4.3 mph ENE6.9 kmh ENE 7.6 mph12.2 kmh 30.30 in1026.1 mb 0.00 in0.0 mm 0.00 in0.0 mm 0.00 in0.0 mm
08:56 AM 44.3°F6.8°C 43.7°F6.5°C 98% 7.1 mph ENE11.4 kmh ENE 8.0 mph12.9 kmh 30.27 in1025.1 mb 0.00 in0.0 mm 0.00 in0.0 mm 0.00 in0.0 mm
08:51 AM 44.9°F7.2°C 44.3°F6.8°C 98% 5.8 mph ENE9.3 kmh ENE 8.0 mph12.9 kmh 30.27 in1025.1 mb 0.00 in0.0 mm 0.00 in0.0 mm 0.00 in0.0 mm
08:46 AM 45.0°F7.2°C 44.4°F6.9°C 98% 2.4 mph ESE3.9 kmh ESE 5.4 mph8.7 kmh 30.27 in1025.1 mb 0.00 in0.0 mm 0.00 in0.0 mm 0.00 in0.0 mm
08:39 AM 44.0°F6.7°C 43.4°F6.3°C 98% 4.6 mph SE7.4 kmh SE 5.4 mph8.7 kmh 30.27 in1025.1 mb 0.00 in0.0 mm 0.00 in0.0 mm 0.00 in0.0 mm
08:34 AM 42.9°F6.1°C 42.3°F5.7°C 98% Calm Calm 5.4 mph8.7 kmh 30.27 in1025.1 mb 0.00 in0.0 mm 0.00 in0.0 mm 0.00 in0.0 mm
08:28 AM 42.0°F5.6°C 41.4°F5.2°C 98% 1.9 mph ENE3.1 kmh ENE 4.4 mph7.1 kmh 30.27 in1025.1 mb 0.00 in0.0 mm 0.00 in0.0 mm 0.00 in0.0 mm
08:23 AM 41.3°F5.2°C 40.7°F4.8°C 98% 3.9 mph 6.3 kmh 5.0 mph8.0 kmh 30.27 in1025.1 mb 0.00 in0.0 mm 0.00 in0.0 mm 0.00 in0.0 mm
08:18 AM 40.9°F4.9°C 40.3°F4.6°C 98% 2.4 mph ENE3.9 kmh ENE 6.8 mph10.9 kmh 30.27 in1025.1 mb 0.00 in0.0 mm 0.00 in0.0 mm 0.00 in0.0 mm
08:13 AM 40.7°F4.8°C 40.1°F4.5°C 98% 3.4 mph ENE5.5 kmh ENE 8.0 mph12.9 kmh 30.27 in1025.1 mb 0.00 in0.0 mm 0.00 in0.0 mm 0.00 in0.0 mm
08:07 AM 40.5°F4.7°C 39.9°F4.4°C 98% 6.7 mph NE10.8 kmh NE 8.0 mph12.9 kmh 30.27 in1025.1 mb 0.00 in0.0 mm 0.00 in0.0 mm 0.00 in0.0 mm
08:02 AM 40.5°F4.7°C 39.9°F4.4°C 98% 5.0 mph NE8.0 kmh NE 6.2 mph10.0 kmh 30.27 in1025.1 mb 0.00 in0.0 mm 0.00 in0.0 mm 0.00 in0.0 mm
07:57 AM 40.5°F4.7°C 39.9°F4.4°C 98% 4.2 mph NE6.8 kmh NE 7.6 mph12.2 kmh 30.24 in1024.0 mb 0.00 in0.0 mm 0.00 in0.0 mm 0.00 in0.0 mm
07:52 AM 40.4°F4.7°C 39.8°F4.3°C 98% 4.0 mph NE6.4 kmh NE 8.0 mph12.9 kmh 30.24 in1024.0 mb 0.00 in0.0 mm 0.00 in0.0 mm 0.00 in0.0 mm
07:47 AM 40.4°F4.7°C 39.8°F4.3°C 98% 5.3 mph E8.5 kmh E 8.0 mph12.9 kmh 30.24 in1024.0 mb 0.00 in0.0 mm 0.00 in0.0 mm 0.00 in0.0 mm
07:42 AM 40.4°F4.7°C 39.8°F4.3°C 98% 3.3 mph ENE5.3 kmh ENE 6.2 mph10.0 kmh 30.24 in1024.0 mb 0.00 in0.0 mm 0.00 in0.0 mm 0.00 in0.0 mm
07:37 AM 40.2°F4.6°C 39.6°F4.2°C 98% 4.5 mph NE7.2 kmh NE 8.0 mph12.9 kmh 30.24 in1024.0 mb 0.00 in0.0 mm 0.00 in0.0 mm 0.00 in0.0 mm
07:32 AM 40.2°F4.6°C 39.6°F4.2°C 98% 6.0 mph NE9.7 kmh NE 8.0 mph12.9 kmh 30.24 in1024.0 mb 0.00 in0.0 mm 0.00 in0.0 mm 0.00 in0.0 mm
07:27 AM 40.2°F4.6°C 39.6°F4.2°C 98% 6.0 mph NNE9.7 kmh NNE 8.0 mph12.9 kmh 30.21 in1023.0 mb 0.00 in0.0 mm 0.00 in0.0 mm 0.00 in0.0 mm
07:22 AM 40.2°F4.6°C 39.6°F4.2°C 98% 6.4 mph NE10.3 kmh NE 8.0 mph12.9 kmh 30.21 in1023.0 mb 0.00 in0.0 mm 0.00 in0.0 mm 0.00 in0.0 mm
07:17 AM 40.2°F4.6°C 39.6°F4.2°C 98% 6.3 mph NE10.1 kmh NE 8.0 mph12.9 kmh 30.21 in1023.0 mb 0.00 in0.0 mm 0.00 in0.0 mm 0.00 in0.0 mm
07:12 AM 40.4°F4.7°C 39.8°F4.3°C 98% 5.1 mph NE8.2 kmh NE 7.6 mph12.2 kmh 30.18 in1022.0 mb 0.00 in0.0 mm 0.00 in0.0 mm 0.00 in0.0 mm
07:07 AM 40.4°F4.7°C 39.8°F4.3°C 98% 4.5 mph NE7.2 kmh NE 7.2 mph11.6 kmh 30.18 in1022.0 mb 0.00 in0.0 mm 0.00 in0.0 mm 0.00 in0.0 mm
07:02 AM 40.4°F4.7°C 39.8°F4.3°C 98% 4.5 mph NE7.2 kmh NE 5.8 mph9.3 kmh 30.18 in1022.0 mb 0.00 in0.0 mm 0.00 in0.0 mm 0.00 in0.0 mm
06:57 AM 40.4°F4.7°C 39.8°F4.3°C 98% Calm Calm 3.2 mph5.1 kmh 30.21 in1023.0 mb 0.00 in0.0 mm 0.00 in0.0 mm 0.00 in0.0 mm
06:52 AM 40.4°F4.7°C 39.8°F4.3°C 98% Calm Calm 5.0 mph8.0 kmh 30.21 in1023.0 mb 0.00 in0.0 mm 0.00 in0.0 mm 0.00 in0.0 mm
06:47 AM 40.4°F4.7°C 39.8°F4.3°C 98% 4.0 mph W6.4 kmh W 5.0 mph8.0 kmh 30.21 in1023.0 mb 0.00 in0.0 mm 0.00 in0.0 mm 0.00 in0.0 mm
06:42 AM 40.4°F4.7°C 39.8°F4.3°C 98% 3.4 mph ENE5.5 kmh ENE 4.4 mph7.1 kmh 30.21 in1023.0 mb 0.00 in0.0 mm 0.00 in0.0 mm 0.00 in0.0 mm
06:37 AM 40.4°F4.7°C 39.8°F4.3°C 98% 2.8 mph WNW4.5 kmh WNW 4.4 mph7.1 kmh 30.21 in1023.0 mb 0.00 in0.0 mm 0.00 in0.0 mm 0.00 in0.0 mm
06:32 AM 40.5°F4.7°C 39.9°F4.4°C 98% 2.8 mph W4.5 kmh W 4.0 mph6.4 kmh 30.21 in1023.0 mb 0.00 in0.0 mm 0.00 in0.0 mm 0.00 in0.0 mm
06:27 AM 40.5°F4.7°C 39.9°F4.4°C 98% Calm Calm -- 30.18 in1022.0 mb 0.00 in0.0 mm 0.00 in0.0 mm 0.00 in0.0 mm
06:22 AM 40.5°F4.7°C 39.9°F4.4°C 98% Calm Calm 3.2 mph5.1 kmh 30.18 in1022.0 mb 0.00 in0.0 mm 0.00 in0.0 mm 0.00 in0.0 mm
06:17 AM 40.5°F4.7°C 39.9°F4.4°C 98% Calm Calm 3.2 mph5.1 kmh 30.18 in1022.0 mb 0.00 in0.0 mm 0.00 in0.0 mm 0.00 in0.0 mm
06:12 AM 40.5°F4.7°C 39.9°F4.4°C 98% 3.2 mph NE5.1 kmh NE 3.2 mph5.1 kmh 30.15 in1021.0 mb 0.00 in0.0 mm 0.00 in0.0 mm 0.00 in0.0 mm
06:07 AM 40.4°F4.7°C 39.8°F4.3°C 98% Calm Calm 4.0 mph6.4 kmh 30.15 in1021.0 mb 0.00 in0.0 mm 0.00 in0.0 mm 0.00 in0.0 mm
06:02 AM 40.4°F4.7°C 39.8°F4.3°C 98% Calm Calm 4.0 mph6.4 kmh 30.15 in1021.0 mb 0.00 in0.0 mm 0.00 in0.0 mm 0.00 in0.0 mm
05:57 AM 40.4°F4.7°C 39.8°F4.3°C 98% 3.7 mph W6.0 kmh W 4.0 mph6.4 kmh 30.15 in1021.0 mb 0.00 in0.0 mm 0.00 in0.0 mm 0.00 in0.0 mm
05:52 AM 40.4°F4.7°C 39.8°F4.3°C 98% Calm Calm 4.0 mph6.4 kmh 30.15 in1021.0 mb 0.00 in0.0 mm 0.00 in0.0 mm 0.00 in0.0 mm
05:47 AM 40.4°F4.7°C 39.8°F4.3°C 98% Calm Calm 4.4 mph7.1 kmh 30.15 in1021.0 mb 0.00 in0.0 mm 0.00 in0.0 mm 0.00 in0.0 mm
05:42 AM 40.4°F4.7°C 39.8°F4.3°C 98% 3.8 mph SW6.1 kmh SW 4.4 mph7.1 kmh 30.15 in1021.0 mb 0.00 in0.0 mm 0.00 in0.0 mm 0.00 in0.0 mm
05:37 AM 40.4°F4.7°C 39.8°F4.3°C 98% 2.6 mph NNE4.2 kmh NNE 6.8 mph10.9 kmh 30.15 in1021.0 mb 0.00 in0.0 mm 0.00 in0.0 mm 0.00 in0.0 mm
05:31 AM 40.4°F4.7°C 39.8°F4.3°C 98% 4.1 mph N6.6 kmh N 6.8 mph10.9 kmh 30.15 in1021.0 mb 0.00 in0.0 mm 0.00 in0.0 mm 0.00 in0.0 mm
05:24 AM 40.5°F4.7°C 39.9°F4.4°C 98% 3.3 mph ENE5.3 kmh ENE 4.4 mph7.1 kmh 30.15 in1021.0 mb 0.00 in0.0 mm 0.00 in0.0 mm 0.00 in0.0 mm
05:19 AM 40.7°F4.8°C 40.1°F4.5°C 98% Calm Calm 5.8 mph9.3 kmh 30.15 in1021.0 mb 0.00 in0.0 mm 0.00 in0.0 mm 0.00 in0.0 mm
05:14 AM 40.9°F4.9°C 40.3°F4.6°C 98% Calm Calm 5.8 mph9.3 kmh 30.15 in1021.0 mb 0.00 in0.0 mm 0.00 in0.0 mm 0.00 in0.0 mm
05:09 AM 41.1°F5.1°C 40.5°F4.7°C 98% 4.1 mph NNE6.6 kmh NNE 5.4 mph8.7 kmh 30.15 in1021.0 mb 0.00 in0.0 mm 0.00 in0.0 mm 0.00 in0.0 mm
05:04 AM 41.3°F5.2°C 40.7°F4.8°C 98% Calm Calm 7.2 mph11.6 kmh 30.15 in1021.0 mb 0.00 in0.0 mm 0.00 in0.0 mm 0.00 in0.0 mm
04:59 AM 41.4°F5.2°C 40.8°F4.9°C 98% 3.0 mph NW4.8 kmh NW 7.6 mph12.2 kmh 30.15 in1021.0 mb 0.00 in0.0 mm 0.00 in0.0 mm 0.00 in0.0 mm
04:53 AM 41.6°F5.3°C 41.0°F5.0°C 98% 4.0 mph WSW6.4 kmh WSW 7.6 mph12.2 kmh 30.12 in1020.0 mb 0.00 in0.0 mm 0.00 in0.0 mm 0.00 in0.0 mm
04:48 AM 41.6°F5.3°C 41.0°F5.0°C 98% 3.1 mph N5.0 kmh N 7.6 mph12.2 kmh 30.12 in1020.0 mb 0.00 in0.0 mm 0.00 in0.0 mm 0.00 in0.0 mm
04:43 AM 41.6°F5.3°C 41.0°F5.0°C 98% Calm Calm 3.2 mph5.1 kmh 30.12 in1020.0 mb 0.00 in0.0 mm 0.00 in0.0 mm 0.00 in0.0 mm
04:38 AM 41.6°F5.3°C 41.0°F5.0°C 98% Calm Calm 5.4 mph8.7 kmh 30.12 in1020.0 mb 0.00 in0.0 mm 0.00 in0.0 mm 0.00 in0.0 mm
04:33 AM 41.6°F5.3°C 41.0°F5.0°C 98% 3.1 mph 5.0 kmh 5.4 mph8.7 kmh 30.12 in1020.0 mb 0.00 in0.0 mm 0.00 in0.0 mm 0.00 in0.0 mm
04:28 AM 41.6°F5.3°C 41.0°F5.0°C 98% 2.8 mph NNE4.5 kmh NNE 3.2 mph5.1 kmh 30.12 in1020.0 mb 0.00 in0.0 mm 0.00 in0.0 mm 0.00 in0.0 mm
04:23 AM 41.8°F5.4°C 41.2°F5.1°C 98% Calm Calm 4.0 mph6.4 kmh 30.09 in1019.0 mb 0.00 in0.0 mm 0.00 in0.0 mm 0.00 in0.0 mm
04:18 AM 41.8°F5.4°C 41.2°F5.1°C 98% 2.7 mph NNE4.3 kmh NNE 4.4 mph7.1 kmh 30.09 in1019.0 mb 0.00 in0.0 mm 0.00 in0.0 mm 0.00 in0.0 mm
04:12 AM 41.8°F5.4°C 41.2°F5.1°C 98% 2.8 mph NNE4.5 kmh NNE 4.4 mph7.1 kmh 30.09 in1019.0 mb 0.00 in0.0 mm 0.00 in0.0 mm 0.00 in0.0 mm
04:07 AM 41.8°F5.4°C 41.2°F5.1°C 98% Calm Calm -- 30.09 in1019.0 mb 0.00 in0.0 mm 0.00 in0.0 mm 0.00 in0.0 mm
04:02 AM 41.6°F5.3°C 41.0°F5.0°C 98% Calm Calm -- 30.09 in1019.0 mb 0.00 in0.0 mm 0.00 in0.0 mm 0.00 in0.0 mm
03:57 AM 41.6°F5.3°C 41.0°F5.0°C 98% Calm Calm 5.8 mph9.3 kmh 30.09 in1019.0 mb 0.00 in0.0 mm 0.00 in0.0 mm 0.00 in0.0 mm
03:52 AM 41.6°F5.3°C 41.0°F5.0°C 98% Calm Calm 7.6 mph12.2 kmh 30.09 in1019.0 mb 0.00 in0.0 mm 0.00 in0.0 mm 0.00 in0.0 mm
03:47 AM 41.6°F5.3°C 41.0°F5.0°C 98% 4.9 mph 7.9 kmh 7.6 mph12.2 kmh 30.09 in1019.0 mb 0.00 in0.0 mm 0.00 in0.0 mm 0.00 in0.0 mm
03:42 AM 41.8°F5.4°C 41.2°F5.1°C 98% Calm Calm 4.0 mph6.4 kmh 30.06 in1017.9 mb 0.00 in0.0 mm 0.00 in0.0 mm 0.00 in0.0 mm
03:37 AM 41.6°F5.3°C 41.0°F5.0°C 98% 2.0 mph W3.2 kmh W 4.0 mph6.4 kmh 30.06 in1017.9 mb 0.00 in0.0 mm 0.00 in0.0 mm 0.00 in0.0 mm
03:31 AM 41.6°F5.3°C 41.0°F5.0°C 98% Calm Calm 4.4 mph7.1 kmh 30.06 in1017.9 mb 0.00 in0.0 mm 0.00 in0.0 mm 0.00 in0.0 mm
03:27 AM 41.6°F5.3°C 41.0°F5.0°C 98% 2.9 mph NNE4.7 kmh NNE 4.4 mph7.1 kmh 30.09 in1019.0 mb 0.00 in0.0 mm 0.00 in0.0 mm 0.00 in0.0 mm
03:21 AM 41.6°F5.3°C 41.0°F5.0°C 98% 2.4 mph SW3.9 kmh SW 4.4 mph7.1 kmh 30.09 in1019.0 mb 0.00 in0.0 mm 0.00 in0.0 mm 0.00 in0.0 mm
03:17 AM 41.8°F5.4°C 41.2°F5.1°C 98% 2.9 mph SW4.7 kmh SW 5.0 mph8.0 kmh 30.09 in1019.0 mb 0.00 in0.0 mm 0.00 in0.0 mm 0.00 in0.0 mm
03:11 AM 41.8°F5.4°C 41.2°F5.1°C 98% 3.9 mph SW6.3 kmh SW 5.0 mph8.0 kmh 30.09 in1019.0 mb 0.00 in0.0 mm 0.00 in0.0 mm 0.00 in0.0 mm
03:06 AM 41.8°F5.4°C 41.2°F5.1°C 98% Calm Calm -- 30.09 in1019.0 mb 0.00 in0.0 mm 0.00 in0.0 mm 0.00 in0.0 mm
03:01 AM 41.8°F5.4°C 41.2°F5.1°C 98% Calm Calm 2.6 mph4.2 kmh 30.09 in1019.0 mb 0.00 in0.0 mm 0.00 in0.0 mm 0.00 in0.0 mm
02:52 AM 41.8°F5.4°C 41.2°F5.1°C 98% Calm Calm 5.0 mph8.0 kmh 30.12 in1020.0 mb 0.00 in0.0 mm 0.00 in0.0 mm 0.00 in0.0 mm
02:33 AM 41.6°F5.3°C 41.0°F5.0°C 98% Calm Calm -- 30.09 in1019.0 mb 0.00 in0.0 mm 0.00 in0.0 mm 0.00 in0.0 mm
02:28 AM 41.6°F5.3°C 41.0°F5.0°C 98% Calm Calm -- 30.09 in1019.0 mb 0.00 in0.0 mm 0.00 in0.0 mm 0.00 in0.0 mm
02:23 AM 41.6°F5.3°C 41.0°F5.0°C 98% Calm Calm -- 30.09 in1019.0 mb 0.00 in0.0 mm 0.00 in0.0 mm 0.00 in0.0 mm
02:18 AM 41.8°F5.4°C 41.2°F5.1°C 98% Calm Calm -- 30.09 in1019.0 mb 0.00 in0.0 mm 0.00 in0.0 mm 0.00 in0.0 mm
01:44 AM 41.8°F5.4°C 41.2°F5.1°C 98% Calm Calm -- 30.09 in1019.0 mb 0.00 in0.0 mm 0.00 in0.0 mm 0.00 in0.0 mm
01:39 AM 41.8°F5.4°C 41.2°F5.1°C 98% Calm Calm -- 30.09 in1019.0 mb 0.00 in0.0 mm 0.00 in0.0 mm 0.00 in0.0 mm
01:34 AM 41.6°F5.3°C 41.0°F5.0°C 98% Calm Calm -- 30.09 in1019.0 mb 0.00 in0.0 mm 0.00 in0.0 mm 0.00 in0.0 mm
01:29 AM 41.6°F5.3°C 41.0°F5.0°C 98% Calm Calm -- 30.09 in1019.0 mb 0.00 in0.0 mm 0.00 in0.0 mm 0.00 in0.0 mm
01:19 AM 41.6°F5.3°C 41.0°F5.0°C 98% Calm Calm -- 30.09 in1019.0 mb 0.00 in0.0 mm 0.00 in0.0 mm 0.00 in0.0 mm
01:01 AM 42.0°F5.6°C 41.4°F5.2°C 98% Calm Calm 2.6 mph4.2 kmh 30.09 in1019.0 mb 0.00 in0.0 mm 0.00 in0.0 mm 0.00 in0.0 mm
12:56 AM 42.0°F5.6°C 41.4°F5.2°C 98% 2.2 mph ESE3.5 kmh ESE 2.2 mph3.5 kmh 30.09 in1019.0 mb 0.00 in0.0 mm 0.00 in0.0 mm 0.00 in0.0 mm
12:51 AM 42.0°F5.6°C 41.4°F5.2°C 98% Calm Calm -- 30.09 in1019.0 mb 0.00 in0.0 mm 0.00 in0.0 mm 0.00 in0.0 mm
12:46 AM 42.2°F5.7°C 41.6°F5.3°C 98% Calm Calm -- 30.09 in1019.0 mb 0.00 in0.0 mm 0.00 in0.0 mm 0.00 in0.0 mm
12:28 AM 42.0°F5.6°C 41.4°F5.2°C 98% Calm Calm -- 30.09 in1019.0 mb 0.00 in0.0 mm 0.00 in0.0 mm 0.00 in0.0 mm
12:23 AM 42.0°F5.6°C 41.4°F5.2°C 98% Calm Calm -- 30.09 in1019.0 mb 0.00 in0.0 mm 0.00 in0.0 mm 0.00 in0.0 mm
12:18 AM 42.0°F5.6°C 41.4°F5.2°C 98% Calm Calm -- 30.09 in1019.0 mb 0.00 in0.0 mm 0.00 in0.0 mm 0.00 in0.0 mm
12:13 AM 42.0°F5.6°C 41.4°F5.2°C 98% Calm Calm -- 30.09 in1019.0 mb 0.00 in0.0 mm 0.00 in0.0 mm 0.00 in0.0 mm
12:08 AM 42.0°F5.6°C 41.4°F5.2°C 98% Calm Calm -- 30.09 in1019.0 mb 0.00 in0.0 mm 0.00 in0.0 mm 0.00 in0.0 mm
12:03 AM 42.0°F5.6°C 41.4°F5.2°C 98% Calm Calm -- 30.09 in1019.0 mb 0.00 in0.0 mm 0.00 in0.0 mm 0.00 in0.0 mm